createdAt,value
2022-11-24T00:00:24.329Z,21.00
2022-11-24T00:02:53.000Z,21.43
2022-11-24T00:05:32.088Z,18.40
2022-11-24T00:08:08.442Z,15.23
2022-11-24T00:10:37.088Z,14.23
2022-11-24T00:13:08.528Z,14.37
2022-11-24T00:15:46.225Z,15.67
2022-11-24T00:18:14.497Z,17.03
2022-11-24T00:20:43.590Z,19.47
2022-11-24T00:23:19.073Z,21.10
2022-11-24T00:25:47.348Z,21.17
2022-11-24T00:28:24.422Z,27.30
2022-11-24T00:30:54.050Z,16.37
2022-11-24T00:33:24.848Z,17.03
2022-11-24T00:36:44.083Z,18.83
2022-11-24T00:39:29.549Z,39.87
2022-11-24T00:42:07.107Z,21.40
2022-11-24T00:44:44.707Z,26.97
2022-11-24T00:47:14.319Z,17.43
2022-11-24T00:49:45.553Z,18.03
2022-11-24T00:52:14.202Z,20.93
2022-11-24T00:54:50.694Z,16.80
2022-11-24T00:57:19.443Z,13.97
2022-11-24T00:59:49.028Z,12.13
2022-11-24T01:02:17.806Z,15.40
2022-11-24T01:04:46.019Z,15.40
2022-11-24T01:07:24.303Z,13.90
2022-11-24T01:09:58.338Z,13.33
2022-11-24T01:12:26.794Z,15.20
2022-11-24T01:15:05.688Z,17.27
2022-11-24T01:17:33.933Z,17.60
2022-11-24T01:20:12.988Z,15.20
2022-11-24T01:22:44.753Z,15.97
2022-11-24T01:25:13.494Z,14.30
2022-11-24T01:27:42.344Z,15.00
2022-11-24T01:30:17.148Z,14.30
2022-11-24T01:32:53.084Z,15.73
2022-11-24T01:35:22.888Z,14.53
2022-11-24T01:37:58.740Z,14.23
2022-11-24T01:40:25.778Z,14.53
2022-11-24T01:42:56.738Z,18.37
2022-11-24T01:45:45.255Z,14.53
2022-11-24T01:48:38.673Z,15.77
2022-11-24T01:51:21.618Z,20.27
2022-11-24T01:54:04.914Z,19.03
2022-11-24T01:56:35.756Z,14.77
2022-11-24T01:59:10.954Z,19.23
2022-11-24T02:01:48.870Z,14.43
2022-11-24T02:04:20.768Z,13.70
2022-11-24T02:06:51.288Z,13.73
2022-11-24T02:09:53.284Z,13.00
2022-11-24T02:12:42.259Z,12.80
2022-11-24T02:15:14.327Z,12.87
2022-11-24T02:17:46.795Z,12.80
2022-11-24T02:20:20.416Z,11.87
2022-11-24T02:23:45.027Z,11.63
2022-11-24T02:26:46.365Z,12.37
2022-11-24T02:29:16.808Z,20.27
2022-11-24T02:31:58.582Z,17.73
2022-11-24T02:34:25.577Z,18.23
2022-11-24T02:36:52.714Z,11.07
2022-11-24T02:39:19.998Z,10.37
2022-11-24T02:41:53.927Z,9.67
2022-11-24T02:44:25.037Z,11.33
2022-11-24T02:47:03.317Z,11.00
2022-11-24T02:49:30.493Z,16.07
2022-11-24T02:51:57.823Z,11.40
2022-11-24T02:54:24.982Z,11.00
2022-11-24T02:56:52.557Z,10.30
2022-11-24T02:59:20.315Z,11.23
2022-11-24T03:01:47.659Z,11.03
2022-11-24T03:04:14.851Z,10.70
2022-11-24T03:06:43.516Z,15.27
2022-11-24T03:09:11.643Z,10.57
2022-11-24T03:11:39.546Z,14.63
2022-11-24T03:14:07.254Z,11.80
2022-11-24T03:16:34.413Z,14.33
2022-11-24T03:19:02.065Z,10.53
2022-11-24T03:21:29.074Z,14.23
2022-11-24T03:23:56.135Z,11.10
2022-11-24T03:26:26.180Z,11.13
2022-11-24T03:28:57.290Z,12.20
2022-11-24T03:31:25.315Z,11.13
2022-11-24T03:33:52.459Z,11.33
2022-11-24T03:36:19.554Z,14.50
2022-11-24T03:38:46.553Z,12.30
2022-11-24T03:41:13.636Z,12.03
2022-11-24T03:43:44.014Z,12.20
2022-11-24T03:46:12.928Z,16.40
2022-11-24T03:48:40.472Z,16.50
2022-11-24T03:51:07.895Z,15.83
2022-11-24T03:53:35.062Z,15.57
2022-11-24T03:56:02.935Z,12.10
2022-11-24T03:58:30.709Z,12.63
2022-11-24T04:00:58.339Z,11.77
2022-11-24T04:03:25.857Z,12.57
2022-11-24T04:05:52.975Z,11.70
2022-11-24T04:08:20.420Z,12.50
2022-11-24T04:10:51.563Z,11.47
2022-11-24T04:13:20.699Z,11.20
2022-11-24T04:15:48.095Z,13.63
2022-11-24T04:18:15.483Z,10.67
2022-11-24T04:20:43.131Z,10.63
2022-11-24T04:23:11.144Z,10.47
2022-11-24T04:25:39.370Z,10.73
2022-11-24T04:28:06.400Z,11.27
2022-11-24T04:30:33.781Z,10.60
2022-11-24T04:33:00.796Z,8.80
2022-11-24T04:35:28.384Z,7.57
2022-11-24T04:37:55.829Z,7.47
2022-11-24T04:40:22.819Z,8.00
2022-11-24T04:42:55.396Z,8.67
2022-11-24T04:45:23.598Z,8.30
2022-11-24T04:47:50.873Z,8.03
2022-11-24T04:50:18.078Z,8.80
2022-11-24T04:52:45.198Z,7.97
2022-11-24T04:55:12.522Z,8.43
2022-11-24T04:57:39.943Z,8.80
2022-11-24T05:00:08.420Z,8.57
2022-11-24T05:02:35.551Z,10.07
2022-11-24T05:05:02.601Z,9.17
2022-11-24T05:07:29.723Z,8.90
2022-11-24T05:10:15.773Z,9.57
2022-11-24T05:12:45.853Z,9.50
2022-11-24T05:15:17.250Z,9.03
2022-11-24T05:17:44.575Z,14.20
2022-11-24T05:20:11.754Z,16.80
2022-11-24T05:22:38.814Z,13.13
2022-11-24T05:25:06.174Z,14.97
2022-11-24T05:27:33.205Z,14.50
2022-11-24T05:30:00.222Z,11.57
2022-11-24T05:32:27.545Z,10.33
2022-11-24T05:34:54.890Z,10.00
2022-11-24T05:37:21.979Z,11.17
2022-11-24T05:39:49.036Z,10.93
2022-11-24T05:42:34.519Z,11.17
2022-11-24T05:45:01.531Z,11.00
2022-11-24T05:47:28.619Z,10.63
2022-11-24T05:49:55.639Z,8.90
2022-11-24T05:52:23.354Z,9.00
2022-11-24T05:54:50.354Z,9.20
2022-11-24T05:57:18.215Z,8.97
2022-11-24T05:59:45.683Z,9.13
2022-11-24T06:02:13.220Z,8.47
2022-11-24T06:04:40.333Z,8.63
2022-11-24T06:07:09.087Z,7.97
2022-11-24T06:09:38.083Z,8.57
2022-11-24T06:12:07.274Z,9.70
2022-11-24T06:14:34.738Z,10.97
2022-11-24T06:17:02.396Z,11.77
2022-11-24T06:19:29.518Z,10.50
2022-11-24T06:21:56.757Z,76.67
2022-11-24T06:24:24.178Z,13.07
2022-11-24T06:26:51.214Z,13.30
2022-11-24T06:29:18.186Z,12.50
2022-11-24T06:31:45.387Z,12.93
2022-11-24T06:34:13.270Z,12.20
2022-11-24T06:36:40.339Z,11.43
2022-11-24T06:39:07.957Z,10.77
2022-11-24T06:41:35.938Z,11.67
2022-11-24T06:44:04.596Z,13.07
2022-11-24T06:46:32.069Z,13.43
2022-11-24T06:49:00.051Z,13.47
2022-11-24T06:51:28.173Z,14.37
2022-11-24T06:53:55.579Z,15.43
2022-11-24T06:56:23.155Z,23.13
2022-11-24T06:58:52.962Z,17.07
2022-11-24T07:01:26.101Z,24.70
2022-11-24T07:03:54.970Z,15.83
2022-11-24T07:06:24.029Z,17.47
2022-11-24T07:08:51.904Z,16.87
2022-11-24T07:11:22.732Z,17.50
2022-11-24T07:13:56.655Z,17.70
2022-11-24T07:16:28.041Z,20.87
2022-11-24T07:18:56.299Z,23.77
2022-11-24T07:21:25.159Z,17.30
2022-11-24T07:23:54.369Z,17.57
2022-11-24T07:26:22.489Z,17.67
2022-11-24T07:28:50.194Z,17.07
2022-11-24T07:31:20.961Z,15.37
2022-11-24T07:33:52.984Z,16.47
2022-11-24T07:36:20.136Z,16.43
2022-11-24T07:38:47.920Z,19.27
2022-11-24T07:41:16.837Z,16.80
2022-11-24T07:43:43.956Z,16.47
2022-11-24T07:46:14.315Z,13.80
2022-11-24T07:48:41.526Z,16.77
2022-11-24T07:51:09.871Z,16.83
2022-11-24T07:53:37.823Z,18.17
2022-11-24T07:56:07.313Z,24.67
2022-11-24T07:58:37.202Z,23.13
2022-11-24T08:01:16.833Z,23.80
2022-11-24T08:03:46.040Z,21.03
2022-11-24T08:06:37.482Z,19.57
2022-11-24T08:09:01.477Z,15.90
2022-11-24T08:11:29.230Z,14.80
2022-11-24T08:13:56.352Z,11.90
2022-11-24T08:16:23.707Z,12.63
2022-11-24T08:18:52.944Z,11.70
2022-11-24T08:21:21.113Z,10.73
2022-11-24T08:23:48.386Z,11.20
2022-11-24T08:26:19.169Z,9.70
2022-11-24T08:28:53.176Z,9.53
2022-11-24T08:31:20.313Z,10.50
2022-11-24T08:33:47.779Z,9.57
2022-11-24T08:36:17.903Z,9.37
2022-11-24T08:38:45.834Z,9.37
2022-11-24T08:41:15.205Z,8.77
2022-11-24T08:43:42.385Z,7.13
2022-11-24T08:46:17.324Z,5.50
2022-11-24T08:48:49.373Z,5.90
2022-11-24T08:51:19.046Z,5.87
2022-11-24T08:53:46.883Z,6.17
2022-11-24T08:56:14.753Z,5.57
2022-11-24T08:58:42.501Z,10.10
2022-11-24T09:01:13.487Z,9.00
2022-11-24T09:03:46.538Z,7.73
2022-11-24T09:06:18.237Z,7.40
2022-11-24T09:08:45.314Z,8.23
2022-11-24T09:11:15.297Z,11.83
2022-11-24T09:13:43.494Z,12.17
2022-11-24T09:16:16.885Z,9.90
2022-11-24T09:18:44.612Z,9.30
2022-11-24T09:21:20.930Z,8.93
2022-11-24T09:23:50.072Z,8.30
2022-11-24T09:26:47.901Z,10.43
2022-11-24T09:29:15.325Z,9.27
2022-11-24T09:31:42.426Z,8.57
2022-11-24T09:34:14.050Z,6.73
2022-11-24T09:36:41.505Z,6.93
2022-11-24T09:39:08.760Z,6.60
2022-11-24T09:41:50.518Z,7.63
2022-11-24T09:44:43.089Z,8.03
2022-11-24T09:47:28.919Z,7.80
2022-11-24T09:50:24.664Z,8.67
2022-11-24T09:53:03.888Z,7.13
2022-11-24T09:55:41.465Z,7.93
2022-11-24T09:58:39.306Z,9.90
2022-11-24T10:01:15.511Z,8.07
2022-11-24T10:03:45.418Z,9.60
2022-11-24T10:06:28.091Z,7.20
2022-11-24T10:09:15.394Z,12.77
2022-11-24T10:11:51.145Z,12.57
2022-11-24T10:14:41.702Z,11.20
2022-11-24T10:17:39.244Z,10.43
2022-11-24T10:20:36.845Z,8.20
2022-11-24T10:23:18.943Z,7.10
2022-11-24T10:25:59.089Z,6.07
2022-11-24T10:28:45.215Z,8.87
2022-11-24T10:31:43.016Z,7.87
2022-11-24T10:34:41.889Z,6.30
2022-11-24T10:37:12.009Z,6.63
2022-11-24T10:39:53.800Z,5.53
2022-11-24T10:42:32.466Z,6.27
2022-11-24T10:45:17.167Z,6.40
2022-11-24T10:47:45.683Z,5.70
2022-11-24T10:50:26.384Z,5.73
2022-11-24T10:53:07.226Z,7.27
2022-11-24T10:56:04.994Z,7.53
2022-11-24T10:58:38.579Z,7.60
2022-11-24T11:01:15.016Z,8.93
2022-11-24T11:03:58.229Z,7.50
2022-11-24T11:06:30.300Z,7.23
2022-11-24T11:09:09.558Z,6.57
2022-11-24T11:11:39.393Z,5.30
2022-11-24T11:14:09.024Z,5.00
2022-11-24T11:16:41.783Z,5.50
2022-11-24T11:19:48.471Z,5.10
2022-11-24T11:22:27.650Z,4.20
2022-11-24T11:25:12.877Z,5.23
2022-11-24T11:27:41.165Z,3.83
2022-11-24T11:36:12.123Z,2.83
2022-11-24T11:38:40.738Z,3.13
2022-11-24T11:41:17.328Z,4.17
2022-11-24T11:43:45.983Z,4.73
2022-11-24T11:46:18.246Z,5.10
2022-11-24T11:48:47.077Z,4.97
2022-11-24T11:51:24.721Z,4.80
2022-11-24T11:53:54.717Z,4.50
2022-11-24T11:56:47.477Z,5.60
2022-11-24T11:59:31.999Z,5.93
2022-11-24T12:02:28.502Z,5.50
2022-11-24T12:08:09.707Z,5.67
2022-11-24T12:10:44.625Z,5.17
2022-11-24T12:13:36.623Z,4.47
2022-11-24T12:16:19.408Z,4.10
2022-11-24T12:19:14.767Z,4.50
2022-11-24T12:21:44.743Z,3.47
2022-11-24T12:24:42.835Z,3.33
2022-11-24T12:27:39.725Z,3.30
2022-11-24T12:30:16.658Z,2.87
2022-11-24T12:33:00.489Z,2.83
2022-11-24T12:35:33.717Z,2.80
2022-11-24T12:38:23.467Z,2.37
2022-11-24T12:41:18.243Z,2.20
2022-11-24T12:43:56.483Z,2.10
2022-11-24T12:46:44.939Z,1.80
2022-11-24T12:49:34.097Z,1.97
2022-11-24T12:52:29.119Z,2.17
2022-11-24T12:54:57.128Z,1.90
2022-11-24T12:57:54.751Z,2.13
2022-11-24T13:00:24.769Z,1.77
2022-11-24T13:02:57.989Z,2.10
2022-11-24T13:05:50.674Z,1.70
2022-11-24T13:08:18.149Z,1.90
2022-11-24T13:11:00.372Z,2.20
2022-11-24T13:13:50.363Z,1.97
2022-11-24T13:16:35.877Z,2.10
2022-11-24T13:19:33.568Z,2.40
2022-11-24T13:22:08.029Z,2.63
2022-11-24T13:24:40.284Z,2.80
2022-11-24T13:27:16.705Z,2.37
2022-11-24T13:29:49.030Z,2.73
2022-11-24T13:32:17.728Z,2.77
2022-11-24T13:34:48.543Z,2.30
2022-11-24T13:37:33.877Z,2.37
2022-11-24T13:40:22.860Z,2.37
2022-11-24T13:43:01.426Z,2.30
2022-11-24T13:45:41.277Z,2.60
2022-11-24T13:48:21.145Z,2.70
2022-11-24T13:50:52.040Z,2.40
2022-11-24T13:53:32.248Z,2.23
2022-11-24T13:56:00.045Z,1.87
2022-11-24T13:58:50.948Z,2.13
2022-11-24T14:01:26.776Z,2.33
2022-11-24T14:07:07.916Z,1.97
2022-11-24T14:09:53.811Z,2.00
2022-11-24T14:12:23.294Z,2.63
2022-11-24T14:14:52.650Z,2.57
2022-11-24T14:17:24.876Z,2.77
2022-11-24T14:19:53.765Z,2.60
2022-11-24T14:22:38.848Z,2.50
2022-11-24T14:25:16.388Z,2.63
2022-11-24T14:27:43.444Z,2.47
2022-11-24T14:30:11.163Z,2.40
2022-11-24T14:32:38.198Z,2.47
2022-11-24T14:35:36.537Z,2.50
2022-11-24T14:38:05.674Z,2.63
2022-11-24T14:40:52.546Z,2.97
2022-11-24T14:43:26.313Z,2.77
2022-11-24T14:46:06.186Z,2.80
2022-11-24T14:51:47.831Z,2.90
2022-11-24T14:54:20.049Z,2.80
2022-11-24T14:57:30.754Z,3.47
2022-11-24T15:00:14.818Z,2.93
2022-11-24T15:02:53.601Z,3.43
2022-11-24T15:05:47.893Z,3.33
2022-11-24T15:08:25.838Z,3.40
2022-11-24T15:11:01.749Z,3.77
2022-11-24T15:13:57.215Z,4.50
2022-11-24T15:16:45.354Z,4.47
2022-11-24T15:19:22.012Z,3.53
2022-11-24T15:21:48.988Z,3.70
2022-11-24T15:24:19.508Z,3.97
2022-11-24T15:26:48.005Z,3.90
2022-11-24T15:29:16.483Z,9.57
2022-11-24T15:31:53.077Z,7.67
2022-11-24T15:34:29.695Z,5.03
2022-11-24T15:36:59.160Z,5.30
2022-11-24T15:39:30.705Z,4.20
2022-11-24T15:42:06.429Z,4.13
2022-11-24T15:47:17.321Z,3.97
2022-11-24T15:49:45.779Z,3.77
2022-11-24T15:52:18.409Z,4.17
2022-11-24T15:54:55.468Z,3.97
2022-11-24T15:57:25.387Z,3.27
2022-11-24T15:59:55.038Z,3.80
2022-11-24T16:02:32.401Z,3.87
2022-11-24T16:05:02.825Z,13.43
2022-11-24T16:07:40.342Z,3.83
2022-11-24T16:10:33.148Z,4.57
2022-11-24T16:13:02.519Z,8.27
2022-11-24T16:15:32.979Z,6.37
2022-11-24T16:18:01.730Z,8.43
2022-11-24T16:20:37.249Z,11.37
2022-11-24T16:23:15.370Z,5.20
2022-11-24T16:25:46.846Z,4.33
2022-11-24T16:28:34.899Z,4.93
2022-11-24T16:31:03.181Z,4.43
2022-11-24T16:33:39.085Z,4.23
2022-11-24T16:36:15.764Z,4.30
2022-11-24T16:38:44.594Z,7.53
2022-11-24T16:41:21.805Z,4.87
2022-11-24T16:44:00.125Z,4.80
2022-11-24T16:46:28.728Z,4.73
2022-11-24T16:49:04.521Z,5.33
2022-11-24T16:51:35.135Z,7.17
2022-11-24T16:54:04.173Z,6.00
2022-11-24T16:56:34.133Z,6.97
2022-11-24T16:59:01.425Z,6.90
2022-11-24T17:01:32.935Z,6.37
2022-11-24T17:04:02.086Z,6.33
2022-11-24T17:06:44.173Z,7.83
2022-11-24T17:09:22.491Z,6.23
2022-11-24T17:11:50.405Z,8.53
2022-11-24T17:14:22.200Z,8.20
2022-11-24T17:16:57.884Z,7.10
2022-11-24T17:19:25.540Z,6.20
2022-11-24T17:21:55.895Z,6.13
2022-11-24T17:24:26.790Z,5.40
2022-11-24T17:26:57.271Z,6.20
2022-11-24T17:29:26.169Z,5.43
2022-11-24T17:31:54.485Z,5.13
2022-11-24T17:34:23.139Z,4.77
2022-11-24T17:36:51.505Z,5.77
2022-11-24T17:39:30.528Z,5.53
2022-11-24T17:41:59.323Z,5.67
2022-11-24T17:44:27.928Z,5.77
2022-11-24T17:46:59.165Z,5.30
2022-11-24T17:49:28.325Z,5.13
2022-11-24T17:52:04.686Z,5.10
2022-11-24T17:54:48.703Z,5.07
2022-11-24T17:57:19.124Z,5.63
2022-11-24T17:59:50.079Z,5.30
2022-11-24T18:02:19.922Z,5.43
2022-11-24T18:04:51.048Z,4.70
2022-11-24T18:07:19.177Z,4.23
2022-11-24T18:10:28.064Z,5.93
2022-11-24T18:12:57.698Z,5.60
2022-11-24T18:15:26.154Z,5.77
2022-11-24T18:18:04.064Z,5.13
2022-11-24T18:20:33.505Z,5.10
2022-11-24T18:23:05.847Z,5.97
2022-11-24T18:25:37.326Z,6.43
2022-11-24T18:28:06.885Z,5.30
2022-11-24T18:30:45.510Z,5.80
2022-11-24T18:33:14.846Z,6.53
2022-11-24T18:35:52.783Z,7.10
2022-11-24T18:38:22.799Z,6.70
2022-11-24T18:41:02.265Z,32.03
2022-11-24T18:43:43.804Z,9.90
2022-11-24T18:46:17.268Z,7.70
2022-11-24T18:48:46.343Z,7.87
2022-11-24T18:51:15.431Z,6.83
2022-11-24T18:53:47.051Z,5.90
2022-11-24T18:56:18.147Z,5.37
2022-11-24T18:58:49.400Z,5.67
2022-11-24T19:01:21.291Z,5.93
2022-11-24T19:04:05.506Z,6.90
2022-11-24T19:06:39.225Z,6.60
2022-11-24T19:09:14.479Z,6.13
2022-11-24T19:11:47.822Z,6.70
2022-11-24T19:14:18.540Z,5.20
2022-11-24T19:16:55.499Z,6.17
2022-11-24T19:19:29.474Z,6.73
2022-11-24T19:22:05.260Z,8.00
2022-11-24T19:24:35.184Z,6.43
2022-11-24T19:27:05.600Z,6.10
2022-11-24T19:29:33.234Z,6.47
2022-11-24T19:32:10.313Z,5.50
2022-11-24T19:34:39.514Z,5.27
2022-11-24T19:37:09.747Z,7.03
2022-11-24T19:39:38.168Z,7.30
2022-11-24T19:42:15.765Z,7.43
2022-11-24T19:44:43.934Z,6.23
2022-11-24T19:49:52.879Z,5.03
2022-11-24T19:52:23.608Z,6.83
2022-11-24T19:54:54.336Z,7.10
2022-11-24T19:57:35.864Z,4.20
2022-11-24T20:00:08.008Z,2.90
2022-11-24T20:02:36.268Z,2.60
2022-11-24T20:05:04.879Z,2.50
2022-11-24T20:07:33.139Z,2.47
2022-11-24T20:10:07.711Z,2.70
2022-11-24T20:12:38.719Z,3.07
2022-11-24T20:15:09.689Z,4.00
2022-11-24T20:17:38.339Z,3.50
2022-11-24T20:20:08.349Z,5.83
2022-11-24T20:22:36.398Z,6.13
2022-11-24T20:25:06.153Z,6.00
2022-11-24T20:27:38.343Z,3.70
2022-11-24T20:30:16.966Z,3.20
2022-11-24T20:32:45.943Z,3.13
2022-11-24T20:35:23.079Z,2.60
2022-11-24T20:37:53.508Z,2.40
2022-11-24T20:40:29.656Z,2.47
2022-11-24T20:42:59.992Z,2.90
2022-11-24T20:45:38.025Z,2.53
2022-11-24T20:48:08.464Z,2.70
2022-11-24T20:50:38.389Z,2.37
2022-11-24T20:53:06.684Z,2.57
2022-11-24T20:55:36.429Z,2.90
2022-11-24T20:58:04.683Z,3.17
2022-11-24T21:00:34.589Z,2.80
2022-11-24T21:03:06.472Z,3.53
2022-11-24T21:05:43.369Z,3.50
2022-11-24T21:08:14.070Z,2.73
2022-11-24T21:10:43.510Z,2.97
2022-11-24T21:13:15.005Z,3.10
2022-11-24T21:15:44.230Z,3.53
2022-11-24T21:18:17.789Z,3.30
2022-11-24T21:20:47.384Z,3.83
2022-11-24T21:23:17.799Z,4.47
2022-11-24T21:25:48.679Z,4.40
2022-11-24T21:28:17.088Z,4.10
2022-11-24T21:30:45.565Z,4.30
2022-11-24T21:33:13.724Z,4.60
2022-11-24T21:35:44.389Z,4.13
2022-11-24T21:38:12.721Z,4.00
2022-11-24T21:40:44.795Z,3.20
2022-11-24T21:46:11.505Z,4.27
2022-11-24T21:48:45.353Z,3.73
2022-11-24T21:51:21.430Z,3.27
2022-11-24T21:53:48.777Z,3.37
2022-11-24T21:56:20.175Z,4.23
2022-11-24T21:59:00.894Z,4.63
2022-11-24T22:01:31.045Z,4.87
2022-11-24T22:04:02.290Z,5.60
2022-11-24T22:06:41.425Z,7.90
2022-11-24T22:09:16.390Z,7.43
2022-11-24T22:12:06.623Z,6.30
2022-11-24T22:14:42.396Z,5.93
2022-11-24T22:17:10.684Z,11.10
2022-11-24T22:19:39.634Z,13.70
2022-11-24T22:22:10.081Z,5.20
2022-11-24T22:24:39.071Z,3.43
2022-11-24T22:27:09.544Z,3.50
2022-11-24T22:29:38.291Z,6.20
2022-11-24T22:32:07.836Z,6.10
2022-11-24T22:34:37.109Z,6.60
2022-11-24T22:37:08.024Z,8.03
2022-11-24T22:39:38.369Z,7.37
2022-11-24T22:42:15.344Z,7.80
2022-11-24T22:44:45.970Z,5.07
2022-11-24T22:47:15.125Z,6.30
2022-11-24T22:49:43.904Z,6.00
2022-11-24T22:52:15.150Z,5.40
2022-11-24T22:54:45.898Z,4.43
2022-11-24T22:57:14.396Z,4.87
2022-11-24T22:59:42.669Z,5.10
2022-11-24T23:02:11.633Z,5.97
2022-11-24T23:04:40.705Z,5.80
2022-11-24T23:07:10.358Z,6.53
2022-11-24T23:09:40.269Z,7.67
2022-11-24T23:12:08.770Z,7.73
2022-11-24T23:14:38.340Z,7.43
2022-11-24T23:17:06.366Z,7.60
2022-11-24T23:19:34.764Z,7.30
2022-11-24T23:22:05.138Z,7.43
2022-11-24T23:24:38.464Z,6.90
2022-11-24T23:27:17.605Z,5.87
2022-11-24T23:29:48.249Z,6.00
2022-11-24T23:32:16.943Z,7.70
2022-11-24T23:34:47.569Z,8.97
2022-11-24T23:37:16.109Z,7.20
2022-11-24T23:39:43.116Z,8.53
2022-11-24T23:42:12.525Z,8.93
2022-11-24T23:44:41.069Z,10.00
2022-11-24T23:47:17.504Z,8.53
2022-11-24T23:49:47.278Z,7.77
2022-11-24T23:52:16.664Z,8.03
2022-11-24T23:54:53.628Z,9.27
2022-11-24T23:57:23.956Z,8.43
2022-11-24T23:59:54.039Z,8.67
